createdAt,value
2018-12-02T00:00:29.819Z,16.37
2018-12-02T00:02:58.210Z,18.80
2018-12-02T00:05:26.981Z,19.30
2018-12-02T00:07:55.211Z,20.40
2018-12-02T00:10:24.009Z,18.27
2018-12-02T00:12:52.286Z,19.33
2018-12-02T00:15:23.565Z,21.90
2018-12-02T00:17:53.095Z,19.20
2018-12-02T00:20:21.353Z,17.97
2018-12-02T00:22:50.612Z,18.93
2018-12-02T00:25:17.935Z,17.37
2018-12-02T00:27:55.323Z,16.13
2018-12-02T00:30:24.620Z,20.70
2018-12-02T00:32:52.858Z,18.13
2018-12-02T00:35:21.153Z,22.20
2018-12-02T00:37:51.278Z,17.17
2018-12-02T00:40:20.313Z,17.60
2018-12-02T00:42:49.575Z,19.13
2018-12-02T00:45:18.790Z,21.77
2018-12-02T00:47:47.070Z,19.17
2018-12-02T00:50:16.150Z,17.73
2018-12-02T00:52:45.535Z,17.40
2018-12-02T00:55:19.244Z,14.80
2018-12-02T00:57:47.511Z,16.13
2018-12-02T01:00:16.108Z,19.60
2018-12-02T01:02:45.396Z,19.50
2018-12-02T01:05:20.682Z,19.77
2018-12-02T01:07:48.932Z,14.77
2018-12-02T01:10:19.971Z,16.97
2018-12-02T01:12:49.247Z,19.80
2018-12-02T01:15:18.575Z,15.47
2018-12-02T01:17:46.777Z,19.73
2018-12-02T01:20:20.855Z,14.27
2018-12-02T01:22:49.071Z,15.80
2018-12-02T01:25:17.358Z,17.27
2018-12-02T01:27:46.197Z,16.93
2018-12-02T01:30:18.259Z,16.03
2018-12-02T01:32:46.522Z,16.23
2018-12-02T01:35:16.531Z,15.90
2018-12-02T01:37:44.820Z,15.73
2018-12-02T01:40:14.011Z,16.47
2018-12-02T01:42:42.294Z,17.53
2018-12-02T01:45:25.860Z,18.40
2018-12-02T01:47:54.994Z,13.93
2018-12-02T01:50:24.907Z,14.13
2018-12-02T01:52:55.123Z,15.53
2018-12-02T01:55:23.377Z,16.87
2018-12-02T01:57:51.602Z,17.47
2018-12-02T02:00:23.761Z,19.47
2018-12-02T02:02:52.325Z,16.50
2018-12-02T02:05:21.426Z,15.23
2018-12-02T02:07:49.668Z,18.87
2018-12-02T02:10:24.854Z,16.47
2018-12-02T02:12:53.079Z,15.57
2018-12-02T02:15:21.386Z,14.80
2018-12-02T02:17:49.598Z,14.30
2018-12-02T02:20:19.696Z,17.93
2018-12-02T02:22:48.003Z,15.73
2018-12-02T02:25:19.971Z,18.23
2018-12-02T02:27:49.422Z,15.00
2018-12-02T02:30:18.545Z,15.83
2018-12-02T02:32:46.788Z,15.83
2018-12-02T02:35:15.548Z,14.17
2018-12-02T02:37:44.014Z,15.27
2018-12-02T02:40:15.364Z,18.67
2018-12-02T02:42:43.864Z,19.23
2018-12-02T02:45:12.744Z,15.67
2018-12-02T02:47:41.015Z,18.67
2018-12-02T02:50:16.286Z,14.33
2018-12-02T02:52:46.631Z,15.17
2018-12-02T02:55:14.850Z,16.67
2018-12-02T02:57:43.081Z,15.13
2018-12-02T03:00:13.344Z,17.33
2018-12-02T03:02:42.625Z,18.60
2018-12-02T03:05:11.649Z,18.23
2018-12-02T03:07:39.871Z,18.60
2018-12-02T03:10:11.060Z,18.93
2018-12-02T03:12:39.313Z,16.13
2018-12-02T03:15:09.353Z,17.90
2018-12-02T03:17:37.620Z,17.43
2018-12-02T03:20:08.157Z,16.40
2018-12-02T03:22:36.434Z,19.73
2018-12-02T03:25:05.721Z,15.47
2018-12-02T03:27:33.945Z,19.20
2018-12-02T03:30:02.175Z,15.23
2018-12-02T03:32:30.502Z,15.27
2018-12-02T03:34:58.716Z,16.10
2018-12-02T03:37:27.026Z,16.40
2018-12-02T03:39:55.300Z,13.97
2018-12-02T03:42:23.548Z,16.60
2018-12-02T03:44:51.766Z,15.63
2018-12-02T03:47:20.028Z,14.57
2018-12-02T03:49:48.289Z,15.03
2018-12-02T03:52:16.526Z,13.77
2018-12-02T03:54:44.746Z,13.70
2018-12-02T03:57:12.979Z,14.30
2018-12-02T03:59:41.255Z,11.97
2018-12-02T04:02:09.550Z,15.00
2018-12-02T04:04:37.750Z,13.07
2018-12-02T04:07:06.172Z,12.27
2018-12-02T04:09:34.391Z,12.80
2018-12-02T04:12:02.604Z,13.73
2018-12-02T04:14:30.814Z,12.87
2018-12-02T04:16:59.051Z,13.50
2018-12-02T04:19:27.262Z,10.40
2018-12-02T04:21:55.515Z,13.00
2018-12-02T04:24:23.709Z,11.90
2018-12-02T04:26:51.940Z,11.60
2018-12-02T04:29:20.151Z,12.80
2018-12-02T04:31:48.408Z,13.73
2018-12-02T04:34:16.606Z,14.17
2018-12-02T04:36:44.827Z,13.97
2018-12-02T04:39:13.055Z,12.03
2018-12-02T04:41:41.273Z,11.90
2018-12-02T04:44:09.511Z,12.07
2018-12-02T04:46:37.751Z,11.30
2018-12-02T04:49:05.959Z,11.87
2018-12-02T04:51:34.211Z,13.70
2018-12-02T04:54:02.419Z,9.90
2018-12-02T04:56:30.634Z,12.83
2018-12-02T04:58:58.886Z,11.10
2018-12-02T05:01:27.091Z,11.20
2018-12-02T05:03:55.372Z,12.50
2018-12-02T05:06:23.573Z,11.07
2018-12-02T05:08:51.873Z,13.07
2018-12-02T05:11:20.107Z,14.97
2018-12-02T05:13:48.334Z,15.80
2018-12-02T05:16:16.554Z,12.43
2018-12-02T05:18:44.827Z,14.40
2018-12-02T05:21:13.069Z,12.13
2018-12-02T05:23:41.315Z,13.17
2018-12-02T05:26:09.550Z,14.03
2018-12-02T05:28:37.790Z,15.57
2018-12-02T05:31:06.043Z,13.47
2018-12-02T05:33:35.071Z,14.03
2018-12-02T05:36:03.291Z,14.33
2018-12-02T05:38:31.543Z,14.80
2018-12-02T05:40:59.749Z,15.70
2018-12-02T05:43:27.983Z,13.67
2018-12-02T05:45:56.190Z,13.53
2018-12-02T05:48:24.439Z,15.17
2018-12-02T05:50:52.663Z,12.07
2018-12-02T05:53:20.899Z,12.83
2018-12-02T05:55:49.116Z,12.07
2018-12-02T05:58:17.353Z,17.37
2018-12-02T06:00:45.600Z,14.27
2018-12-02T06:03:13.891Z,13.97
2018-12-02T06:05:42.123Z,14.07
2018-12-02T06:08:10.399Z,14.83
2018-12-02T06:10:38.631Z,15.87
2018-12-02T06:13:06.954Z,13.77
2018-12-02T06:15:35.175Z,15.93
2018-12-02T06:18:03.409Z,16.03
2018-12-02T06:20:32.648Z,14.33
2018-12-02T06:23:00.956Z,17.93
2018-12-02T06:25:29.242Z,16.67
2018-12-02T06:27:57.491Z,17.60
2018-12-02T06:30:27.451Z,15.73
2018-12-02T06:32:59.426Z,16.63
2018-12-02T06:35:27.639Z,15.17
2018-12-02T06:37:56.703Z,15.63
2018-12-02T06:40:25.968Z,17.27
2018-12-02T06:42:54.218Z,16.23
2018-12-02T06:45:22.542Z,16.93
2018-12-02T06:47:50.796Z,16.73
2018-12-02T06:50:19.998Z,16.17
2018-12-02T06:52:48.265Z,20.40
2018-12-02T06:55:22.307Z,14.73
2018-12-02T06:57:54.641Z,14.57
2018-12-02T07:00:32.043Z,14.23
2018-12-02T07:03:06.519Z,19.10
2018-12-02T07:05:36.577Z,17.57
2018-12-02T07:08:04.842Z,15.87
2018-12-02T07:10:33.090Z,15.80
2018-12-02T07:13:01.315Z,17.60
2018-12-02T07:15:29.530Z,16.27
2018-12-02T07:17:57.778Z,15.47
2018-12-02T07:20:26.002Z,15.37
2018-12-02T07:22:54.225Z,14.93
2018-12-02T07:25:22.458Z,16.90
2018-12-02T07:27:50.740Z,15.93
2018-12-02T07:30:24.878Z,17.97
2018-12-02T07:32:47.911Z,15.60
2018-12-02T07:35:16.138Z,17.63
2018-12-02T07:37:48.089Z,15.20
2018-12-02T07:40:22.592Z,18.23
2018-12-02T07:42:50.882Z,18.20
2018-12-02T07:45:19.157Z,17.47
2018-12-02T07:47:47.362Z,15.90
2018-12-02T07:50:15.632Z,16.87
2018-12-02T07:52:44.414Z,14.90
2018-12-02T07:55:12.684Z,17.60
2018-12-02T07:57:40.902Z,16.07
2018-12-02T08:00:11.634Z,16.17
2018-12-02T08:02:40.031Z,25.17
2018-12-02T08:05:09.739Z,17.17
2018-12-02T08:07:38.042Z,17.73
2018-12-02T08:10:10.783Z,21.43
2018-12-02T08:12:38.989Z,19.27
2018-12-02T08:15:10.615Z,18.13
2018-12-02T08:17:38.920Z,16.63
2018-12-02T08:20:12.188Z,18.10
2018-12-02T08:22:40.614Z,15.47
2018-12-02T08:25:10.976Z,17.13
2018-12-02T08:27:40.263Z,15.67
2018-12-02T08:30:12.340Z,16.90
2018-12-02T08:32:40.575Z,17.17
2018-12-02T08:35:10.204Z,14.03
2018-12-02T08:37:39.126Z,13.47
2018-12-02T08:40:09.922Z,14.70
2018-12-02T08:42:38.218Z,14.57
2018-12-02T08:45:10.881Z,16.03
2018-12-02T08:47:39.339Z,12.60
2018-12-02T08:50:11.631Z,13.53
2018-12-02T08:52:39.861Z,12.27
2018-12-02T08:55:10.135Z,11.63
2018-12-02T08:57:38.350Z,12.40
2018-12-02T09:00:12.923Z,12.20
2018-12-02T09:02:41.252Z,12.87
2018-12-02T09:05:10.809Z,12.23
2018-12-02T09:07:39.084Z,14.10
2018-12-02T09:10:17.731Z,12.33
2018-12-02T09:12:46.489Z,10.57
2018-12-02T09:15:15.179Z,10.33
2018-12-02T09:17:43.193Z,15.07
2018-12-02T09:20:31.892Z,10.77
2018-12-02T09:23:00.190Z,9.80
2018-12-02T09:25:28.401Z,11.30
2018-12-02T09:27:56.623Z,11.13
2018-12-02T09:30:27.054Z,11.67
2018-12-02T09:32:55.259Z,9.93
2018-12-02T09:35:23.509Z,8.90
2018-12-02T09:37:51.748Z,9.93
2018-12-02T09:40:19.997Z,8.47
2018-12-02T09:42:51.252Z,10.03
2018-12-02T09:45:21.310Z,9.17
2018-12-02T09:47:49.620Z,8.37
2018-12-02T09:50:17.935Z,8.73
2018-12-02T09:52:46.145Z,12.47
2018-12-02T09:55:19.095Z,9.87
2018-12-02T09:57:47.415Z,12.07
2018-12-02T10:00:17.822Z,9.17
2018-12-02T10:02:46.030Z,8.40
2018-12-02T10:05:14.260Z,9.17
2018-12-02T10:07:42.485Z,8.87
2018-12-02T10:10:15.108Z,9.73
2018-12-02T10:12:44.717Z,9.67
2018-12-02T10:15:14.153Z,10.53
2018-12-02T10:17:42.367Z,9.20
2018-12-02T10:20:13.531Z,8.57
2018-12-02T10:22:41.775Z,10.80
2018-12-02T10:25:13.749Z,10.30
2018-12-02T10:27:41.938Z,9.97
2018-12-02T10:30:17.971Z,9.10
2018-12-02T10:32:46.214Z,8.83
2018-12-02T10:35:14.490Z,8.87
2018-12-02T10:37:42.740Z,7.20
2018-12-02T10:40:14.885Z,8.00
2018-12-02T10:42:43.112Z,7.40
2018-12-02T10:45:12.564Z,8.63
2018-12-02T10:47:40.971Z,8.27
2018-12-02T10:50:20.098Z,8.23
2018-12-02T10:52:48.742Z,11.20
2018-12-02T10:55:49.122Z,9.27
2018-12-02T10:58:20.597Z,9.20
2018-12-02T11:00:54.924Z,7.87
2018-12-02T11:03:23.172Z,8.77
2018-12-02T11:05:51.932Z,9.17
2018-12-02T11:08:20.551Z,7.87
2018-12-02T11:10:48.806Z,8.33
2018-12-02T11:13:17.834Z,8.27
2018-12-02T11:15:46.095Z,7.17
2018-12-02T11:18:14.640Z,9.87
2018-12-02T11:20:43.228Z,8.50
2018-12-02T11:23:11.455Z,7.97
2018-12-02T11:25:39.774Z,8.33
2018-12-02T11:28:08.938Z,7.07
2018-12-02T11:30:37.335Z,6.93
2018-12-02T11:33:05.859Z,9.07
2018-12-02T11:35:34.096Z,8.23
2018-12-02T11:38:02.356Z,8.30
2018-12-02T11:40:30.588Z,7.30
2018-12-02T11:42:58.840Z,8.33
2018-12-02T11:45:27.088Z,7.57
2018-12-02T11:47:55.493Z,7.60
2018-12-02T11:50:24.827Z,7.27
2018-12-02T11:52:53.059Z,9.80
2018-12-02T11:55:22.223Z,6.70
2018-12-02T11:57:50.642Z,6.20
2018-12-02T12:00:28.582Z,7.87
2018-12-02T12:02:57.756Z,8.10
2018-12-02T12:05:26.756Z,10.77
2018-12-02T12:07:55.014Z,7.80
2018-12-02T12:10:26.123Z,8.17
2018-12-02T12:12:57.307Z,9.60
2018-12-02T12:15:26.418Z,8.90
2018-12-02T12:17:55.279Z,7.30
2018-12-02T12:20:28.605Z,6.73
2018-12-02T12:22:56.984Z,7.63
2018-12-02T12:25:25.336Z,8.37
2018-12-02T12:27:54.520Z,7.73
2018-12-02T12:30:26.815Z,9.10
2018-12-02T12:32:55.105Z,7.87
2018-12-02T12:35:23.864Z,7.80
2018-12-02T12:37:52.330Z,8.07
2018-12-02T12:40:25.640Z,9.17
2018-12-02T12:42:55.656Z,8.73
2018-12-02T12:45:23.887Z,7.53
2018-12-02T12:47:52.135Z,8.07
2018-12-02T12:50:20.418Z,9.37
2018-12-02T12:52:48.718Z,8.73
2018-12-02T12:55:17.379Z,17.37
2018-12-02T12:57:45.955Z,22.03
2018-12-02T13:00:21.257Z,11.40
2018-12-02T13:02:49.514Z,13.93
2018-12-02T13:05:18.933Z,15.83
2018-12-02T13:07:48.202Z,11.23
2018-12-02T13:10:16.238Z,9.43
2018-12-02T13:12:44.504Z,14.43
2018-12-02T13:15:14.677Z,11.33
2018-12-02T13:17:44.241Z,8.93
2018-12-02T13:20:13.801Z,11.43
2018-12-02T13:22:42.017Z,8.03
2018-12-02T13:25:11.361Z,8.20
2018-12-02T13:27:39.970Z,21.27
2018-12-02T13:30:11.815Z,10.20
2018-12-02T13:32:40.071Z,11.27
2018-12-02T13:35:08.879Z,12.13
2018-12-02T13:37:37.182Z,17.07
2018-12-02T13:40:13.123Z,12.03
2018-12-02T13:42:41.712Z,9.07
2018-12-02T13:45:11.595Z,16.07
2018-12-02T13:47:39.835Z,11.60
2018-12-02T13:50:12.072Z,8.03
2018-12-02T13:52:40.300Z,8.10
2018-12-02T13:55:10.327Z,7.90
2018-12-02T13:57:38.619Z,7.87
2018-12-02T14:00:12.712Z,7.70
2018-12-02T14:02:41.014Z,5.77
2018-12-02T14:05:09.933Z,7.03
2018-12-02T14:07:38.182Z,7.47
2018-12-02T14:10:08.943Z,8.50
2018-12-02T14:12:37.164Z,7.37
2018-12-02T14:15:15.583Z,13.93
2018-12-02T14:17:45.479Z,7.60
2018-12-02T14:20:13.739Z,8.83
2018-12-02T14:22:41.999Z,5.60
2018-12-02T14:25:12.644Z,8.47
2018-12-02T14:27:41.987Z,5.57
2018-12-02T14:30:18.426Z,7.33
2018-12-02T14:32:46.687Z,6.80
2018-12-02T14:35:14.891Z,6.50
2018-12-02T14:37:43.193Z,7.80
2018-12-02T14:40:12.649Z,6.23
2018-12-02T14:42:41.979Z,7.83
2018-12-02T14:45:15.555Z,7.93
2018-12-02T14:47:43.843Z,7.43
2018-12-02T14:50:17.709Z,7.50
2018-12-02T14:52:47.346Z,7.17
2018-12-02T14:55:18.398Z,7.10
2018-12-02T14:57:46.610Z,7.87
2018-12-02T15:00:15.833Z,8.80
2018-12-02T15:02:44.059Z,7.67
2018-12-02T15:05:13.015Z,8.67
2018-12-02T15:07:41.917Z,8.77
2018-12-02T15:10:16.307Z,8.37
2018-12-02T15:12:45.220Z,7.73
2018-12-02T15:15:14.490Z,9.10
2018-12-02T15:17:43.215Z,7.97
2018-12-02T15:20:14.646Z,8.50
2018-12-02T15:22:42.878Z,7.97
2018-12-02T15:25:12.218Z,8.83
2018-12-02T15:27:40.468Z,7.33
2018-12-02T15:30:16.176Z,9.03
2018-12-02T15:32:45.779Z,8.37
2018-12-02T15:35:13.992Z,7.70
2018-12-02T15:37:42.256Z,8.67
2018-12-02T15:40:13.246Z,7.87
2018-12-02T15:42:43.145Z,8.03
2018-12-02T15:45:13.408Z,7.97
2018-12-02T15:47:41.478Z,7.93
2018-12-02T15:50:14.861Z,6.87
2018-12-02T15:52:43.545Z,8.90
2018-12-02T15:55:13.424Z,8.63
2018-12-02T15:57:41.692Z,9.07
2018-12-02T16:00:15.716Z,8.50
2018-12-02T16:02:44.037Z,8.80
2018-12-02T16:05:12.276Z,8.50
2018-12-02T16:07:40.549Z,8.80
2018-12-02T16:10:10.866Z,8.40
2018-12-02T16:12:40.399Z,7.27
2018-12-02T16:15:13.573Z,7.50
2018-12-02T16:17:41.913Z,7.73
2018-12-02T16:20:12.814Z,7.67
2018-12-02T16:22:41.559Z,7.70
2018-12-02T16:25:10.647Z,7.83
2018-12-02T16:27:38.946Z,7.50
2018-12-02T16:30:15.888Z,7.57
2018-12-02T16:32:50.386Z,7.33
2018-12-02T16:35:20.825Z,7.07
2018-12-02T16:37:50.214Z,8.03
2018-12-02T16:40:20.572Z,7.73
2018-12-02T16:42:48.827Z,9.30
2018-12-02T16:45:17.830Z,6.67
2018-12-02T16:47:47.342Z,7.47
2018-12-02T16:50:22.970Z,7.40
2018-12-02T16:52:52.686Z,6.70
2018-12-02T16:55:22.770Z,7.73
2018-12-02T16:57:58.583Z,7.43
2018-12-02T17:00:35.761Z,7.00
2018-12-02T17:03:04.087Z,8.27
2018-12-02T17:05:32.853Z,9.23
2018-12-02T17:08:01.222Z,6.13
2018-12-02T17:10:29.517Z,8.23
2018-12-02T17:12:57.758Z,6.93
2018-12-02T17:15:26.055Z,7.10
2018-12-02T17:17:54.282Z,6.00
2018-12-02T17:20:22.735Z,6.90
2018-12-02T17:22:51.011Z,6.80
2018-12-02T17:25:19.753Z,6.97
2018-12-02T17:27:48.002Z,6.70
2018-12-02T17:30:19.923Z,7.33
2018-12-02T17:32:48.193Z,6.67
2018-12-02T17:35:17.281Z,7.37
2018-12-02T17:37:45.495Z,8.83
2018-12-02T17:40:18.903Z,6.50
2018-12-02T17:42:47.119Z,6.60
2018-12-02T17:45:16.000Z,6.33
2018-12-02T17:47:44.281Z,6.03
2018-12-02T17:50:14.318Z,6.60
2018-12-02T17:52:43.809Z,6.50
2018-12-02T17:55:12.064Z,5.67
2018-12-02T17:57:40.265Z,7.03
2018-12-02T18:00:10.819Z,5.77
2018-12-02T18:02:39.052Z,5.80
2018-12-02T18:05:11.819Z,5.90
2018-12-02T18:07:42.717Z,5.90
2018-12-02T18:10:12.444Z,4.50
2018-12-02T18:12:41.129Z,4.50
2018-12-02T18:15:11.186Z,4.57
2018-12-02T18:17:39.462Z,4.43
2018-12-02T18:20:11.166Z,4.27
2018-12-02T18:22:39.950Z,6.70
2018-12-02T18:25:10.656Z,3.90
2018-12-02T18:27:38.906Z,3.20
2018-12-02T18:30:15.779Z,4.63
2018-12-02T18:32:44.128Z,3.73
2018-12-02T18:36:18.540Z,4.43
2018-12-02T18:38:47.852Z,3.40
2018-12-02T18:41:24.180Z,4.00
2018-12-02T18:43:52.873Z,3.40
2018-12-02T18:46:21.543Z,3.73
2018-12-02T18:48:49.875Z,4.07
2018-12-02T18:51:18.589Z,3.60
2018-12-02T18:53:47.815Z,3.83
2018-12-02T18:56:16.638Z,3.53
2018-12-02T18:58:44.355Z,4.73
2018-12-02T19:01:12.586Z,4.43
2018-12-02T19:03:40.813Z,3.40
2018-12-02T19:06:09.617Z,4.00
2018-12-02T19:08:38.268Z,4.43
2018-12-02T19:11:07.829Z,3.83
2018-12-02T19:13:43.398Z,4.10
2018-12-02T19:16:06.227Z,3.57
2018-12-02T19:18:34.497Z,4.33
2018-12-02T19:21:10.162Z,4.90
2018-12-02T19:23:38.451Z,4.40
2018-12-02T19:26:06.761Z,4.63
2018-12-02T19:28:35.003Z,4.90
2018-12-02T19:31:03.351Z,5.77
2018-12-02T19:33:31.577Z,5.80
2018-12-02T19:36:02.902Z,5.60
2018-12-02T19:38:31.175Z,6.10
2018-12-02T19:40:59.507Z,5.50
2018-12-02T19:43:27.755Z,6.03
2018-12-02T19:45:55.984Z,5.90
2018-12-02T19:48:24.199Z,5.43
2018-12-02T19:50:52.503Z,5.70
2018-12-02T19:53:20.714Z,6.23
2018-12-02T19:55:48.961Z,6.70
2018-12-02T19:58:17.206Z,6.17
2018-12-02T20:00:46.982Z,6.50
2018-12-02T20:03:16.276Z,6.07
2018-12-02T20:05:45.571Z,6.77
2018-12-02T20:08:14.592Z,6.90
2018-12-02T20:10:47.041Z,6.23
2018-12-02T20:13:16.454Z,7.07
2018-12-02T20:15:50.383Z,7.70
2018-12-02T20:18:19.010Z,7.00
2018-12-02T20:20:50.735Z,8.13
2018-12-02T20:23:25.130Z,8.00
2018-12-02T20:25:54.815Z,7.70
2018-12-02T20:28:25.161Z,7.23
2018-12-02T20:30:53.390Z,7.83
2018-12-02T20:33:21.691Z,8.20
2018-12-02T20:35:49.911Z,7.97
2018-12-02T20:38:18.137Z,7.73
2018-12-02T20:40:46.400Z,7.40
2018-12-02T20:43:14.688Z,7.80
2018-12-02T20:45:42.923Z,7.43
2018-12-02T20:48:11.156Z,7.33
2018-12-02T20:50:39.390Z,7.43
2018-12-02T20:53:07.611Z,7.80
2018-12-02T20:55:35.811Z,8.33
2018-12-02T20:58:04.032Z,8.70
2018-12-02T21:00:32.239Z,7.40
2018-12-02T21:03:08.537Z,6.90
2018-12-02T21:05:57.635Z,10.83
2018-12-02T21:08:25.901Z,7.97
2018-12-02T21:10:54.154Z,7.17
2018-12-02T21:13:22.519Z,9.00
2018-12-02T21:15:50.730Z,9.63
2018-12-02T21:18:18.991Z,7.33
2018-12-02T21:20:47.202Z,7.30
2018-12-02T21:23:15.457Z,7.73
2018-12-02T21:25:43.883Z,8.80
2018-12-02T21:28:12.492Z,8.03
2018-12-02T21:30:40.717Z,6.67
2018-12-02T21:33:08.954Z,7.43
2018-12-02T21:35:37.183Z,7.10
2018-12-02T21:38:05.679Z,8.37
2018-12-02T21:40:33.892Z,8.83
2018-12-02T21:43:02.134Z,8.83
2018-12-02T21:45:30.350Z,7.87
2018-12-02T21:47:58.586Z,6.27
2018-12-02T21:50:28.986Z,8.37
2018-12-02T21:52:58.327Z,6.20
2018-12-02T21:55:26.554Z,7.17
2018-12-02T21:57:54.766Z,8.67
2018-12-02T22:00:28.526Z,7.50
2018-12-02T22:02:56.743Z,5.70
2018-12-02T22:05:24.989Z,6.17
2018-12-02T22:07:53.242Z,6.93
2018-12-02T22:10:26.703Z,7.13
2018-12-02T22:12:54.942Z,6.60
2018-12-02T22:15:23.206Z,5.90
2018-12-02T22:17:51.422Z,6.77
2018-12-02T22:20:19.630Z,7.70
2018-12-02T22:22:47.862Z,7.80
2018-12-02T22:25:18.082Z,8.53
2018-12-02T22:27:47.285Z,7.03
2018-12-02T22:30:16.586Z,6.93
2018-12-02T22:32:44.875Z,9.50
2018-12-02T22:35:13.959Z,9.87
2018-12-02T22:37:42.462Z,8.63
2018-12-02T22:40:15.842Z,9.27
2018-12-02T22:42:44.050Z,8.50
2018-12-02T22:45:13.618Z,9.07
2018-12-02T22:47:41.871Z,8.77
2018-12-02T22:50:13.346Z,7.67
2018-12-02T22:52:41.851Z,8.50
2018-12-02T22:55:10.993Z,7.93
2018-12-02T22:57:39.262Z,7.83
2018-12-02T23:00:17.158Z,7.40
2018-12-02T23:02:52.182Z,8.20
2018-12-02T23:05:20.415Z,9.67
2018-12-02T23:07:48.642Z,12.93
2018-12-02T23:10:16.908Z,11.30
2018-12-02T23:12:45.137Z,8.47
2018-12-02T23:15:13.363Z,10.20
2018-12-02T23:17:41.709Z,8.43
2018-12-02T23:20:11.042Z,8.57
2018-12-02T23:22:39.310Z,9.40
2018-12-02T23:25:10.679Z,8.83
2018-12-02T23:27:38.916Z,8.97
2018-12-02T23:30:13.630Z,10.27
2018-12-02T23:32:41.973Z,8.37
2018-12-02T23:35:10.303Z,8.67
2018-12-02T23:37:38.540Z,9.03
2018-12-02T23:40:11.360Z,8.97
2018-12-02T23:42:39.595Z,7.50
2018-12-02T23:45:09.160Z,7.93
2018-12-02T23:47:37.396Z,8.93
2018-12-02T23:50:08.271Z,7.83
2018-12-02T23:52:36.844Z,8.10
2018-12-02T23:55:06.552Z,7.90
2018-12-02T23:57:34.778Z,7.43
